Time;durP1;ratioP1;P1;durP2;ratioP2;P2;SDS_P1;SDS_P2;PMS_P1;PMS_P2;Temp;Humidity;BMP_temperature;BMP_pressure;BME280_temperature;BME280_humidity;BME280_pressure;Samples;Min_cycle;Max_cycle;Signal;HPM_P1;HPM_P2
2023/10/28 00:02:23;;;;;;;0.50;0.27;;;7.30;99.90;;;;;;5117197;27;20438;-82
2023/10/28 00:04:51;;;;;;;0.60;0.30;;;7.20;99.90;;;;;;5113497;27;20466;-81
2023/10/28 00:07:18;;;;;;;0.50;0.30;;;7.20;99.90;;;;;;5103713;27;20462;-81
2023/10/28 00:09:46;;;;;;;0.63;0.23;;;7.20;99.90;;;;;;5132495;27;20522;-82
2023/10/28 00:12:14;;;;;;;0.97;0.30;;;7.20;99.90;;;;;;5125444;27;20552;-82
2023/10/28 00:14:41;;;;;;;0.50;0.30;;;7.20;99.90;;;;;;5123103;27;20456;-82
2023/10/28 00:17:09;;;;;;;0.40;0.20;;;7.20;99.90;;;;;;5127019;27;20455;-82
2023/10/28 00:19:36;;;;;;;0.50;0.30;;;7.20;99.90;;;;;;5137350;27;20440;-82
2023/10/28 00:22:03;;;;;;;1.27;0.20;;;7.30;99.90;;;;;;5115434;27;20915;-82
2023/10/28 00:24:30;;;;;;;0.40;0.30;;;7.20;99.90;;;;;;5124264;27;20928;-82
2023/10/28 00:26:58;;;;;;;2.40;0.30;;;7.10;99.90;;;;;;5131388;27;20469;-81
2023/10/28 00:29:25;;;;;;;0.47;0.30;;;7.00;99.90;;;;;;5128983;27;20464;-81
2023/10/28 00:31:52;;;;;;;0.93;0.50;;;6.90;99.90;;;;;;5128299;27;20931;-82
2023/10/28 00:34:19;;;;;;;0.67;0.50;;;6.80;99.90;;;;;;5120275;27;20537;-81
2023/10/28 00:36:46;;;;;;;0.87;0.30;;;7.00;99.90;;;;;;5122261;27;20491;-82
2023/10/28 00:39:13;;;;;;;0.50;0.30;;;7.00;99.90;;;;;;5130419;27;20449;-81
2023/10/28 00:41:40;;;;;;;0.40;0.30;;;7.00;99.90;;;;;;5130262;27;20441;-82
2023/10/28 00:44:09;;;;;;;1.83;0.50;;;6.90;99.90;;;;;;5118716;27;20571;-81
2023/10/28 00:46:37;;;;;;;0.93;0.40;;;6.90;99.90;;;;;;5112805;27;20477;-82
2023/10/28 00:49:06;;;;;;;0.50;0.30;;;6.80;99.90;;;;;;5117286;27;20507;-82
2023/10/28 00:51:33;;;;;;;0.60;0.20;;;6.70;99.90;;;;;;5124260;27;20445;-82
2023/10/28 00:54:01;;;;;;;0.73;0.30;;;6.70;99.90;;;;;;5121744;27;20484;-82
2023/10/28 00:56:28;;;;;;;0.50;0.37;;;6.60;99.90;;;;;;5112224;27;20553;-82
2023/10/28 00:58:55;;;;;;;4.40;0.37;;;6.70;99.90;;;;;;5127582;27;20479;-82
2023/10/28 01:01:23;;;;;;;1.27;0.30;;;6.70;99.90;;;;;;5106087;27;21004;-82
2023/10/28 01:03:50;;;;;;;0.50;0.30;;;6.70;99.90;;;;;;5109546;27;20439;-82
2023/10/28 01:06:17;;;;;;;0.60;0.40;;;6.70;99.90;;;;;;5115593;27;20465;-81
2023/10/28 01:08:44;;;;;;;0.80;0.40;;;6.60;99.90;;;;;;5131362;27;20444;-82
2023/10/28 01:11:12;;;;;;;1.10;0.50;;;6.70;99.90;;;;;;5122439;27;20961;-82
2023/10/28 01:13:39;;;;;;;1.27;0.37;;;6.60;99.90;;;;;;5105360;27;20492;-82
2023/10/28 01:16:08;;;;;;;0.50;0.40;;;6.60;99.90;;;;;;5114888;27;20483;-82
2023/10/28 01:18:36;;;;;;;0.47;0.30;;;6.60;99.90;;;;;;5124286;27;20823;-82
2023/10/28 01:21:12;;;;;;;0.50;0.30;;;6.50;99.90;;;;;;5123283;27;20461;-82
2023/10/28 01:23:40;;;;;;;1.63;0.73;;;6.50;99.90;;;;;;5110127;27;20462;-82
2023/10/28 01:26:06;;;;;;;2.07;0.40;;;6.50;99.90;;;;;;5123044;27;20445;-82
2023/10/28 01:28:35;;;;;;;0.77;0.40;;;6.30;99.90;;;;;;5119581;27;20453;-82
2023/10/28 01:31:02;;;;;;;0.90;0.53;;;6.30;99.90;;;;;;5117267;27;20461;-82
2023/10/28 01:33:29;;;;;;;0.87;0.40;;;6.20;99.90;;;;;;5124126;27;20489;-83
2023/10/28 01:35:56;;;;;;;0.70;0.30;;;6.20;99.90;;;;;;5122113;27;20944;-82
2023/10/28 01:38:24;;;;;;;1.40;0.60;;;6.20;99.90;;;;;;5132884;27;20457;-82
2023/10/28 01:40:52;;;;;;;4.77;0.57;;;6.10;99.90;;;;;;5136919;27;20477;-82
2023/10/28 01:43:19;;;;;;;1.50;0.57;;;6.00;99.90;;;;;;5124700;27;20535;-82
2023/10/28 01:45:46;;;;;;;1.77;0.73;;;6.00;99.90;;;;;;5121976;27;21000;-82
2023/10/28 01:48:15;;;;;;;0.57;0.37;;;6.00;99.90;;;;;;5124213;27;20907;-82
2023/10/28 01:50:42;;;;;;;0.50;0.40;;;6.00;99.90;;;;;;5132957;27;20488;-82
2023/10/28 01:53:09;;;;;;;0.43;0.40;;;6.10;99.90;;;;;;5125121;27;20552;-82
2023/10/28 01:55:37;;;;;;;0.93;0.50;;;6.00;99.90;;;;;;5126321;27;20499;-82
2023/10/28 01:58:04;;;;;;;0.70;0.33;;;6.10;99.90;;;;;;5128017;27;20451;-82
2023/10/28 02:00:31;;;;;;;3.53;0.40;;;6.10;99.90;;;;;;5129892;27;20462;-83
2023/10/28 02:03:00;;;;;;;0.50;0.40;;;6.00;99.90;;;;;;5122116;27;20539;-83
2023/10/28 02:05:27;;;;;;;5.80;1.03;;;6.00;99.90;;;;;;5115067;27;20456;-83
2023/10/28 02:07:53;;;;;;;0.43;0.40;;;6.10;99.90;;;;;;5130295;27;20465;-83
2023/10/28 02:10:20;;;;;;;0.50;0.40;;;6.10;99.90;;;;;;5138937;27;20525;-83
2023/10/28 02:12:49;;;;;;;0.50;0.40;;;6.20;99.90;;;;;;5122324;27;20471;-83
2023/10/28 02:15:16;;;;;;;0.60;0.40;;;6.30;99.90;;;;;;5117453;27;20524;-82
2023/10/28 02:17:45;;;;;;;0.50;0.40;;;6.40;99.90;;;;;;5126857;27;20819;-83
2023/10/28 02:20:13;;;;;;;1.90;0.60;;;6.40;99.90;;;;;;5123504;27;20464;-82
2023/10/28 02:22:41;;;;;;;0.80;0.40;;;6.40;99.90;;;;;;5120725;27;20460;-83
2023/10/28 02:25:09;;;;;;;3.60;0.50;;;6.50;99.90;;;;;;5127721;27;20782;-81
2023/10/28 02:27:37;;;;;;;0.73;0.50;;;6.70;99.90;;;;;;5126637;27;20464;-81
2023/10/28 02:30:07;;;;;;;1.00;0.50;;;6.70;99.90;;;;;;5130624;27;20568;-81
2023/10/28 02:32:34;;;;;;;1.10;0.60;;;6.80;99.90;;;;;;5115584;27;21055;-81
2023/10/28 02:35:01;;;;;;;0.90;0.60;;;6.90;99.90;;;;;;5128221;27;21191;-81
2023/10/28 02:37:28;;;;;;;0.60;0.50;;;6.90;99.90;;;;;;5129742;27;20475;-81
2023/10/28 02:39:55;;;;;;;0.40;0.30;;;6.80;99.90;;;;;;5127183;27;20462;-81
2023/10/28 02:42:23;;;;;;;3.10;0.40;;;6.80;99.90;;;;;;5118593;27;20925;-81
2023/10/28 02:44:51;;;;;;;0.67;0.43;;;6.80;99.90;;;;;;5128036;27;20453;-82
2023/10/28 02:47:19;;;;;;;0.60;0.30;;;6.90;99.90;;;;;;5132277;27;20444;-82
2023/10/28 02:49:46;;;;;;;3.20;0.40;;;6.80;99.90;;;;;;5124269;27;20463;-81
2023/10/28 02:52:13;;;;;;;0.90;0.50;;;6.80;99.90;;;;;;5116593;27;20797;-81
2023/10/28 02:54:40;;;;;;;0.40;0.30;;;6.90;99.90;;;;;;5122484;27;20556;-81
2023/10/28 02:57:08;;;;;;;0.60;0.40;;;7.10;99.90;;;;;;5118637;27;20541;-82
2023/10/28 02:59:35;;;;;;;0.50;0.40;;;7.20;99.90;;;;;;5133051;27;20833;-82
2023/10/28 03:02:02;;;;;;;3.43;0.40;;;7.30;99.90;;;;;;5121224;27;20453;-82
2023/10/28 03:04:30;;;;;;;2.93;1.03;;;7.40;99.90;;;;;;5117697;27;20893;-82
2023/10/28 03:06:57;;;;;;;2.27;0.70;;;7.50;99.90;;;;;;5118768;27;20928;-81
2023/10/28 03:09:24;;;;;;;1.70;0.47;;;7.50;99.90;;;;;;5134023;27;20448;-81
2023/10/28 03:11:51;;;;;;;0.50;0.50;;;7.50;99.90;;;;;;5117313;27;20489;-81
2023/10/28 03:14:18;;;;;;;2.90;0.50;;;7.50;99.90;;;;;;5123432;27;21119;-81
2023/10/28 03:16:46;;;;;;;0.40;0.37;;;7.50;99.90;;;;;;5114429;27;20542;-81
2023/10/28 03:19:13;;;;;;;0.83;0.43;;;7.50;99.90;;;;;;5125409;27;20473;-81
2023/10/28 03:21:41;;;;;;;0.60;0.50;;;7.40;99.90;;;;;;5117005;27;20461;-81
2023/10/28 03:24:09;;;;;;;5.07;0.57;;;7.40;99.90;;;;;;5128235;27;20441;-81
2023/10/28 03:26:36;;;;;;;0.53;0.50;;;7.50;99.90;;;;;;5118443;27;20797;-81
2023/10/28 03:29:03;;;;;;;2.77;0.60;;;7.60;99.90;;;;;;5115720;27;20485;-82
2023/10/28 03:31:30;;;;;;;1.00;0.70;;;7.60;99.90;;;;;;5120741;27;20712;-81
2023/10/28 03:33:56;;;;;;;1.30;0.53;;;7.60;99.90;;;;;;5117582;27;20481;-81
2023/10/28 03:36:23;;;;;;;1.10;0.50;;;7.60;99.90;;;;;;5106842;27;20461;-81
2023/10/28 03:38:52;;;;;;;0.60;0.60;;;7.70;99.90;;;;;;5133753;27;20441;-81
2023/10/28 03:41:19;;;;;;;1.47;0.87;;;7.70;99.90;;;;;;5110605;27;20437;-81
2023/10/28 03:43:46;;;;;;;0.60;0.40;;;7.70;99.90;;;;;;5124416;27;20596;-82
2023/10/28 03:46:18;;;;;;;1.90;0.60;;;7.70;99.90;;;;;;5118267;27;20521;-81
2023/10/28 03:48:45;;;;;;;0.60;0.50;;;7.80;99.90;;;;;;5122859;27;20460;-82
2023/10/28 03:51:12;;;;;;;0.80;0.50;;;7.80;99.90;;;;;;5114044;27;20907;-81
2023/10/28 03:53:39;;;;;;;0.80;0.50;;;7.80;99.90;;;;;;5107308;27;20570;-82
2023/10/28 03:56:08;;;;;;;1.20;0.60;;;7.90;99.90;;;;;;5110955;27;20563;-82
2023/10/28 03:58:35;;;;;;;0.87;0.53;;;7.90;99.90;;;;;;5127735;27;20470;-81
2023/10/28 04:01:02;;;;;;;0.43;0.40;;;7.90;99.90;;;;;;5110364;27;20455;-82
2023/10/28 04:03:29;;;;;;;0.50;0.40;;;7.90;99.90;;;;;;5106415;27;20482;-80
2023/10/28 04:05:56;;;;;;;0.93;0.63;;;7.80;99.90;;;;;;5119156;27;20445;-80
2023/10/28 04:08:23;;;;;;;0.70;0.50;;;7.80;99.90;;;;;;5111882;27;20478;-80
2023/10/28 04:10:50;;;;;;;1.73;0.60;;;7.80;99.90;;;;;;5137300;27;20441;-80
2023/10/28 04:13:18;;;;;;;0.57;0.47;;;7.80;99.90;;;;;;5126057;27;20471;-81
2023/10/28 04:15:46;;;;;;;4.87;0.50;;;7.80;99.90;;;;;;5118577;27;20465;-80
2023/10/28 04:18:13;;;;;;;0.70;0.40;;;7.80;99.90;;;;;;5127784;27;20801;-81
2023/10/28 04:20:40;;;;;;;0.73;0.40;;;7.90;99.90;;;;;;5121036;27;20540;-81
2023/10/28 04:23:07;;;;;;;0.80;0.30;;;8.00;99.90;;;;;;5126502;27;20437;-81
2023/10/28 04:25:34;;;;;;;0.70;0.43;;;8.00;99.90;;;;;;5123422;27;21135;-80
2023/10/28 04:28:01;;;;;;;0.57;0.40;;;8.00;99.90;;;;;;5127685;27;20764;-81
2023/10/28 04:30:30;;;;;;;0.80;0.57;;;8.00;99.90;;;;;;5112665;27;20441;-81
2023/10/28 04:32:57;;;;;;;0.57;0.40;;;8.10;99.90;;;;;;5115593;27;20457;-81
2023/10/28 04:35:24;;;;;;;0.40;0.30;;;8.10;99.90;;;;;;5122956;27;20488;-81
2023/10/28 04:37:52;;;;;;;0.47;0.30;;;8.20;99.90;;;;;;5126607;27;20471;-81
2023/10/28 04:40:19;;;;;;;0.50;0.30;;;8.30;99.90;;;;;;5121925;27;20441;-81
2023/10/28 04:42:47;;;;;;;0.80;0.40;;;8.30;99.90;;;;;;5122369;27;20456;-81
2023/10/28 04:45:14;;;;;;;0.40;0.30;;;8.30;99.90;;;;;;5119503;27;20463;-81
2023/10/28 04:47:42;;;;;;;0.60;0.40;;;8.40;99.90;;;;;;5128564;27;20436;-81
2023/10/28 04:50:10;;;;;;;0.40;0.30;;;8.40;99.90;;;;;;5129092;27;20852;-81
2023/10/28 04:52:37;;;;;;;0.60;0.40;;;8.50;99.90;;;;;;5105484;27;20466;-81
2023/10/28 04:55:04;;;;;;;0.40;0.30;;;8.70;99.90;;;;;;5117847;27;20516;-81
2023/10/28 04:57:31;;;;;;;0.40;0.30;;;8.90;99.90;;;;;;5113204;27;20465;-81
2023/10/28 04:59:58;;;;;;;0.60;0.40;;;9.00;99.90;;;;;;5129201;27;20445;-82
2023/10/28 05:02:25;;;;;;;0.40;0.20;;;9.00;99.90;;;;;;5123963;27;20529;-82
2023/10/28 05:04:53;;;;;;;0.50;0.30;;;9.00;99.90;;;;;;5112454;27;20465;-82
2023/10/28 05:07:21;;;;;;;0.43;0.30;;;9.10;99.90;;;;;;5122933;27;20529;-82
2023/10/28 05:09:47;;;;;;;0.60;0.30;;;9.20;99.90;;;;;;5132886;27;20940;-82
2023/10/28 05:12:14;;;;;;;0.50;0.40;;;9.40;99.90;;;;;;5117557;27;20484;-82
2023/10/28 05:14:41;;;;;;;0.70;0.30;;;9.40;99.90;;;;;;5119465;27;21004;-82
2023/10/28 05:17:08;;;;;;;0.50;0.30;;;9.40;99.90;;;;;;5126337;27;20469;-82
2023/10/28 05:19:35;;;;;;;0.40;0.30;;;9.40;99.90;;;;;;5115689;27;20951;-82
2023/10/28 05:22:04;;;;;;;0.50;0.30;;;9.40;99.90;;;;;;5126319;27;20485;-82
2023/10/28 05:24:32;;;;;;;0.40;0.30;;;9.30;99.90;;;;;;5113380;27;20445;-82
2023/10/28 05:26:59;;;;;;;1.20;0.40;;;9.40;99.90;;;;;;5115609;27;20440;-82
2023/10/28 05:29:26;;;;;;;0.50;0.30;;;9.50;99.90;;;;;;5128289;27;20451;-82
2023/10/28 05:31:56;;;;;;;2.27;0.27;;;9.50;99.90;;;;;;5114206;27;20438;-82
2023/10/28 05:34:23;;;;;;;2.87;0.30;;;9.40;99.90;;;;;;5113886;27;20877;-82
2023/10/28 05:36:50;;;;;;;0.40;0.20;;;9.40;99.90;;;;;;5118498;27;20977;-82
2023/10/28 05:39:20;;;;;;;0.80;0.40;;;9.30;99.90;;;;;;5116925;27;20444;-81
2023/10/28 05:41:47;;;;;;;0.57;0.30;;;9.30;99.90;;;;;;5115511;27;20540;-81
2023/10/28 05:44:15;;;;;;;1.13;0.20;;;9.40;99.90;;;;;;5111134;27;20834;-81
2023/10/28 05:46:42;;;;;;;0.40;0.30;;;9.40;99.90;;;;;;5114264;27;21539;-81
2023/10/28 05:49:12;;;;;;;2.43;0.37;;;9.40;99.90;;;;;;5111611;27;20527;-82
2023/10/28 05:51:39;;;;;;;0.43;0.37;;;9.40;99.90;;;;;;5110334;27;20462;-81
2023/10/28 05:54:06;;;;;;;0.40;0.37;;;9.40;99.90;;;;;;5111783;27;20489;-81
2023/10/28 05:56:35;;;;;;;0.40;0.20;;;9.40;99.90;;;;;;5112590;27;20944;-81
2023/10/28 05:59:02;;;;;;;0.77;0.30;;;9.50;99.90;;;;;;5112828;27;20485;-81
2023/10/28 06:01:29;;;;;;;0.70;0.20;;;9.50;99.90;;;;;;5118450;27;20507;-82
2023/10/28 06:03:56;;;;;;;1.13;0.30;;;9.60;99.90;;;;;;5108147;27;20498;-81
2023/10/28 06:06:23;;;;;;;0.40;0.30;;;9.70;99.90;;;;;;5112229;27;20458;-82
2023/10/28 06:08:50;;;;;;;0.40;0.20;;;9.70;99.90;;;;;;5108357;27;20513;-82
2023/10/28 06:11:17;;;;;;;1.20;0.30;;;9.70;99.90;;;;;;5111043;27;21036;-82
2023/10/28 06:13:45;;;;;;;1.07;0.30;;;9.70;99.90;;;;;;5113125;27;21239;-82
2023/10/28 06:16:13;;;;;;;0.50;0.30;;;9.60;99.90;;;;;;5114480;27;20542;-81
2023/10/28 06:18:40;;;;;;;0.40;0.23;;;9.60;99.90;;;;;;5122057;27;20456;-81
2023/10/28 06:21:07;;;;;;;0.43;0.30;;;9.70;99.90;;;;;;5119451;27;20514;-82
2023/10/28 06:23:34;;;;;;;0.73;0.30;;;9.70;99.90;;;;;;5112770;27;20442;-81
2023/10/28 06:26:01;;;;;;;0.50;0.30;;;9.80;99.90;;;;;;5112857;27;20514;-81
2023/10/28 06:28:28;;;;;;;1.40;0.30;;;9.90;99.90;;;;;;5120502;27;20485;-81
2023/10/28 06:30:59;;;;;;;0.57;0.30;;;9.80;99.90;;;;;;5119576;27;20449;-82
2023/10/28 06:33:26;;;;;;;1.23;0.30;;;9.80;99.90;;;;;;5116861;27;20518;-81
2023/10/28 06:35:53;;;;;;;0.83;0.30;;;9.90;99.90;;;;;;5115197;27;20888;-81
2023/10/28 06:38:20;;;;;;;0.40;0.30;;;10.00;99.90;;;;;;5112519;27;20457;-82
2023/10/28 06:40:48;;;;;;;0.77;0.30;;;10.00;99.90;;;;;;5111124;27;20461;-82
2023/10/28 06:43:15;;;;;;;0.40;0.30;;;10.10;99.90;;;;;;5112076;27;20470;-82
2023/10/28 06:45:42;;;;;;;0.57;0.30;;;10.20;99.90;;;;;;5113358;27;21159;-82
2023/10/28 06:48:11;;;;;;;0.50;0.30;;;10.40;99.90;;;;;;5113787;27;20466;-81
2023/10/28 06:50:38;;;;;;;1.33;0.40;;;10.50;99.90;;;;;;5110510;27;20470;-82
2023/10/28 06:53:05;;;;;;;0.40;0.30;;;10.50;99.90;;;;;;5109064;27;20443;-82
2023/10/28 06:55:32;;;;;;;1.30;0.40;;;10.60;99.90;;;;;;5107903;27;20546;-82
2023/10/28 06:58:00;;;;;;;1.73;0.40;;;10.60;99.90;;;;;;5108144;27;20462;-82
2023/10/28 07:00:28;;;;;;;0.70;0.37;;;10.70;99.90;;;;;;5110507;27;20446;-81
2023/10/28 07:02:56;;;;;;;0.40;0.30;;;10.90;99.90;;;;;;5119859;27;20459;-81
2023/10/28 07:05:25;;;;;;;1.00;0.40;;;11.00;99.90;;;;;;5118603;27;20461;-81
2023/10/28 07:07:54;;;;;;;0.40;0.20;;;11.10;99.90;;;;;;5121312;27;20537;-82
2023/10/28 07:10:21;;;;;;;0.40;0.30;;;11.10;99.90;;;;;;5130540;27;20473;-81
2023/10/28 07:12:49;;;;;;;0.37;0.20;;;11.10;99.90;;;;;;5114194;27;20542;-81
2023/10/28 07:15:17;;;;;;;6.10;0.40;;;11.00;99.90;;;;;;5124480;27;20891;-82
2023/10/28 07:17:44;;;;;;;1.10;0.27;;;11.00;99.90;;;;;;5114018;27;20473;-81
2023/10/28 07:20:11;;;;;;;0.50;0.30;;;11.00;99.90;;;;;;5111843;27;20470;-82
2023/10/28 07:22:41;;;;;;;0.97;0.20;;;10.90;99.90;;;;;;5107531;27;20466;-80
2023/10/28 07:25:09;;;;;;;0.50;0.20;;;10.80;99.90;;;;;;5113711;27;20794;-81
2023/10/28 07:27:36;;;;;;;1.00;0.30;;;10.70;99.90;;;;;;5106554;27;20532;-82
2023/10/28 07:30:04;;;;;;;0.50;0.20;;;10.70;99.90;;;;;;5112995;27;20838;-82
2023/10/28 07:32:31;;;;;;;0.47;0.30;;;10.70;99.90;;;;;;5107490;27;20913;-81
2023/10/28 07:34:58;;;;;;;0.47;0.30;;;10.80;99.90;;;;;;5117396;27;20476;-82
2023/10/28 07:37:25;;;;;;;1.80;0.30;;;11.00;99.90;;;;;;5116586;27;20488;-81
2023/10/28 07:39:53;;;;;;;0.67;0.30;;;11.00;99.90;;;;;;5125067;27;20457;-81
2023/10/28 07:42:23;;;;;;;0.40;0.20;;;11.00;99.90;;;;;;5117906;27;20457;-82
2023/10/28 07:44:51;;;;;;;2.30;0.20;;;11.10;99.90;;;;;;5112322;27;20524;-82
2023/10/28 07:47:18;;;;;;;0.90;0.30;;;11.00;99.90;;;;;;5122956;27;20550;-82
2023/10/28 07:49:45;;;;;;;0.40;0.20;;;10.90;99.90;;;;;;5106143;27;20440;-82
2023/10/28 07:52:12;;;;;;;1.13;0.30;;;10.90;99.90;;;;;;5116437;27;20643;-82
2023/10/28 07:54:39;;;;;;;1.53;0.30;;;10.80;99.90;;;;;;5109998;27;20469;-82
2023/10/28 07:57:08;;;;;;;0.40;0.23;;;10.80;99.90;;;;;;5114031;27;20456;-82
2023/10/28 07:59:34;;;;;;;0.40;0.30;;;10.90;99.90;;;;;;5113408;27;20759;-81
2023/10/28 08:02:01;;;;;;;0.50;0.30;;;11.00;99.90;;;;;;5106527;27;20447;-82
2023/10/28 08:04:28;;;;;;;0.43;0.30;;;11.10;99.90;;;;;;5109947;27;20489;-81
2023/10/28 08:06:55;;;;;;;1.00;0.30;;;11.20;99.90;;;;;;5115934;27;20986;-81
2023/10/28 08:09:22;;;;;;;0.40;0.20;;;11.20;99.90;;;;;;5129742;27;20451;-81
2023/10/28 08:11:50;;;;;;;0.93;0.30;;;11.30;99.90;;;;;;5120126;27;21048;-82
2023/10/28 08:14:18;;;;;;;0.40;0.20;;;11.40;99.90;;;;;;5115526;27;20474;-81
2023/10/28 08:16:45;;;;;;;0.80;0.50;;;11.70;99.90;;;;;;5108055;27;20517;-81
2023/10/28 08:19:13;;;;;;;0.80;0.50;;;11.90;99.90;;;;;;5112666;27;20507;-81
2023/10/28 08:21:40;;;;;;;0.40;0.40;;;12.00;99.60;;;;;;5115586;27;20442;-81
2023/10/28 08:24:11;;;;;;;0.50;0.30;;;12.20;99.60;;;;;;5110144;27;20473;-81
2023/10/28 08:26:39;;;;;;;0.50;0.30;;;12.30;97.40;;;;;;5103350;27;20936;-81
2023/10/28 08:29:06;;;;;;;1.17;0.30;;;12.40;98.00;;;;;;5108718;27;20851;-82
2023/10/28 08:31:35;;;;;;;1.70;0.40;;;12.50;96.00;;;;;;5104587;27;20463;-82
2023/10/28 08:34:04;;;;;;;0.40;0.30;;;12.60;96.40;;;;;;5112800;27;20470;-81
2023/10/28 08:36:31;;;;;;;18.63;1.27;;;12.70;95.40;;;;;;5109802;27;20484;-82
2023/10/28 08:38:58;;;;;;;0.50;0.30;;;12.80;95.90;;;;;;5110367;27;20566;-82
2023/10/28 08:41:25;;;;;;;0.40;0.30;;;12.90;95.50;;;;;;5106771;27;20471;-82
2023/10/28 08:43:54;;;;;;;0.77;0.37;;;13.00;95.10;;;;;;5103865;27;20463;-82
2023/10/28 08:46:21;;;;;;;0.50;0.20;;;13.10;94.20;;;;;;5112769;27;20544;-82
2023/10/28 08:48:50;;;;;;;1.63;0.30;;;13.10;92.90;;;;;;5115970;27;20465;-83
2023/10/28 08:51:17;;;;;;;0.73;0.40;;;13.20;93.50;;;;;;5123022;27;20498;-82
2023/10/28 08:53:46;;;;;;;2.30;0.40;;;13.30;93.50;;;;;;5102904;27;20465;-82
2023/10/28 08:56:16;;;;;;;0.50;0.40;;;13.40;92.50;;;;;;5115762;27;20872;-83
2023/10/28 08:58:45;;;;;;;0.50;0.20;;;13.50;93.40;;;;;;5113712;27;20500;-83
2023/10/28 09:01:13;;;;;;;0.40;0.30;;;13.60;93.20;;;;;;5120489;27;20467;-83
2023/10/28 09:03:43;;;;;;;0.40;0.20;;;13.60;91.90;;;;;;5102746;27;20677;-83
2023/10/28 09:06:12;;;;;;;2.47;0.33;;;13.70;91.80;;;;;;5121789;27;20498;-83
2023/10/28 09:08:40;;;;;;;0.40;0.30;;;13.80;92.60;;;;;;5121159;27;20445;-83
2023/10/28 09:11:07;;;;;;;0.70;0.30;;;14.00;91.50;;;;;;5106668;27;20542;-83
2023/10/28 09:13:34;;;;;;;0.40;0.30;;;14.00;90.20;;;;;;5108611;27;20468;-82
2023/10/28 09:16:02;;;;;;;0.50;0.30;;;14.00;87.50;;;;;;5130000;27;20483;-84
2023/10/28 09:18:38;;;;;;;0.40;0.20;;;14.00;89.80;;;;;;5114055;27;20876;-82
2023/10/28 09:21:08;;;;;;;0.40;0.20;;;14.00;90.10;;;;;;5114816;27;20897;-82
2023/10/28 09:23:36;;;;;;;0.40;0.20;;;14.20;90.40;;;;;;5110481;27;20470;-83
2023/10/28 09:26:04;;;;;;;0.70;0.30;;;14.10;85.60;;;;;;5104997;27;20914;-83
2023/10/28 09:28:31;;;;;;;1.23;0.30;;;14.20;89.30;;;;;;5117368;27;20462;-82
2023/10/28 09:30:59;;;;;;;0.40;0.30;;;14.30;85.50;;;;;;5111572;27;20536;-83
2023/10/28 09:33:27;;;;;;;0.50;0.30;;;14.40;88.90;;;;;;5103702;27;20459;-83
2023/10/28 09:35:55;;;;;;;0.50;0.30;;;14.50;90.30;;;;;;5106089;27;20489;-82
2023/10/28 09:38:22;;;;;;;0.47;0.30;;;14.50;86.50;;;;;;5108465;27;20820;-82
2023/10/28 09:40:51;;;;;;;0.40;0.30;;;14.60;83.10;;;;;;5120241;27;20446;-82
2023/10/28 09:43:18;;;;;;;0.50;0.30;;;14.50;82.90;;;;;;5105464;27;20551;-82
2023/10/28 09:45:50;;;;;;;1.33;0.30;;;14.50;82.90;;;;;;5113238;27;20479;-82
2023/10/28 09:48:18;;;;;;;3.33;0.30;;;14.50;84.50;;;;;;5104707;27;20466;-82
2023/10/28 09:50:49;;;;;;;2.00;0.30;;;14.60;84.30;;;;;;5117533;27;20514;-82
2023/10/28 09:53:18;;;;;;;0.40;0.20;;;14.60;84.20;;;;;;5105887;27;20464;-82
2023/10/28 09:55:47;;;;;;;0.53;0.30;;;14.40;79.10;;;;;;5103746;27;21149;-82
2023/10/28 09:58:23;;;;;;;0.50;0.30;;;14.40;80.00;;;;;;5106268;27;20489;-82
2023/10/28 10:00:55;;;;;;;1.53;0.40;;;14.40;82.10;;;;;;5107404;27;20523;-82
2023/10/28 10:03:37;;;;;;;2.80;0.37;;;14.50;77.10;;;;;;5115848;27;20547;-83
2023/10/28 10:06:05;;;;;;;1.10;0.40;;;14.50;79.20;;;;;;5121615;27;20491;-84
2023/10/28 10:08:36;;;;;;;0.50;0.30;;;14.60;76.90;;;;;;5127762;27;20446;-83
2023/10/28 10:11:03;;;;;;;0.40;0.30;;;14.60;76.70;;;;;;5125111;27;20500;-83
2023/10/28 10:13:31;;;;;;;1.43;1.33;;;14.80;80.60;;;;;;5117450;27;20465;-83
2023/10/28 10:16:03;;;;;;;0.53;0.30;;;14.80;79.90;;;;;;5125987;27;20579;-82
2023/10/28 10:18:37;;;;;;;0.40;0.30;;;14.80;79.30;;;;;;5128310;27;20466;-82
2023/10/28 10:21:05;;;;;;;1.07;0.80;;;14.50;75.80;;;;;;5130981;27;20947;-82
2023/10/28 10:23:43;;;;;;;1.07;0.40;;;14.50;77.50;;;;;;5128427;27;20459;-82
2023/10/28 10:26:21;;;;;;;0.50;0.20;;;14.60;76.10;;;;;;5124665;27;20894;-81
2023/10/28 10:28:52;;;;;;;0.93;0.30;;;14.70;76.70;;;;;;5107956;27;20459;-81
2023/10/28 10:31:22;;;;;;;1.70;0.30;;;14.70;79.20;;;;;;5119903;27;20539;-84
2023/10/28 10:34:03;;;;;;;1.07;0.37;;;14.70;75.80;;;;;;5108320;27;20459;-83
2023/10/28 10:36:35;;;;;;;1.07;0.30;;;14.80;73.50;;;;;;5114740;27;21282;-83
2023/10/28 10:39:14;;;;;;;0.80;0.30;;;14.60;78.40;;;;;;5115696;27;20469;-83
2023/10/28 10:41:42;;;;;;;3.03;0.40;;;14.80;76.30;;;;;;5113463;27;20535;-82
2023/10/28 10:44:33;;;;;;;0.60;0.30;;;14.80;76.80;;;;;;5114343;27;20439;-81
2023/10/28 10:47:04;;;;;;;0.40;0.20;;;14.80;81.80;;;;;;5108419;27;20890;-82
2023/10/28 10:49:33;;;;;;;0.50;0.30;;;15.00;77.50;;;;;;5118733;27;20557;-82
2023/10/28 10:52:00;;;;;;;1.27;0.40;;;14.90;72.70;;;;;;5120500;27;20549;-82
2023/10/28 10:54:31;;;;;;;0.40;0.30;;;15.30;78.00;;;;;;5108203;27;20448;-82
2023/10/28 10:56:58;;;;;;;0.70;0.30;;;15.50;70.80;;;;;;5108586;27;20488;-82
2023/10/28 10:59:28;;;;;;;6.70;0.40;;;15.70;73.60;;;;;;5117628;27;20468;-83
2023/10/28 11:01:56;;;;;;;0.87;0.30;;;15.70;73.90;;;;;;5123687;27;21182;-83
2023/10/28 11:04:24;;;;;;;0.40;0.30;;;15.70;73.40;;;;;;5115875;27;20460;-82
2023/10/28 11:06:51;;;;;;;0.73;0.30;;;15.60;71.30;;;;;;5124374;27;20474;-83
2023/10/28 11:09:19;;;;;;;0.50;0.30;;;15.70;67.00;;;;;;5124678;27;20468;-82
2023/10/28 11:11:46;;;;;;;0.40;0.30;;;16.00;68.60;;;;;;5122570;27;20468;-82
2023/10/28 11:14:13;;;;;;;1.90;0.60;;;16.10;69.00;;;;;;5117982;27;20866;-82
2023/10/28 11:16:43;;;;;;;1.17;0.40;;;15.90;67.50;;;;;;5116574;27;21229;-82
2023/10/28 11:19:11;;;;;;;3.20;0.33;;;15.90;64.50;;;;;;5118147;27;20464;-83
2023/10/28 11:21:40;;;;;;;0.60;0.30;;;15.90;67.70;;;;;;5122856;27;20919;-82
2023/10/28 11:24:08;;;;;;;0.40;0.20;;;16.00;62.20;;;;;;5109347;27;20450;-82
2023/10/28 11:26:37;;;;;;;0.50;0.30;;;16.00;64.10;;;;;;5112034;27;20461;-81
2023/10/28 11:29:06;;;;;;;0.40;0.30;;;16.10;63.20;;;;;;5110788;27;20491;-82
2023/10/28 11:31:36;;;;;;;0.40;0.20;;;16.30;68.10;;;;;;5113490;27;20462;-83
2023/10/28 11:34:04;;;;;;;5.27;0.40;;;16.20;61.10;;;;;;5109912;27;20491;-83
2023/10/28 11:36:33;;;;;;;0.40;0.20;;;16.20;63.90;;;;;;5112373;27;20485;-84
2023/10/28 11:39:08;;;;;;;0.70;0.30;;;16.30;63.30;;;;;;5116431;27;20539;-84
2023/10/28 11:41:36;;;;;;;0.40;0.30;;;16.50;65.50;;;;;;5115045;27;20460;-84
2023/10/28 11:44:03;;;;;;;0.90;0.27;;;16.40;61.60;;;;;;5105667;27;20523;-84
2023/10/28 11:46:31;;;;;;;0.50;0.40;;;16.40;64.30;;;;;;5113041;27;20441;-84
2023/10/28 11:48:57;;;;;;;0.60;0.30;;;16.30;64.20;;;;;;5107350;27;20474;-84
2023/10/28 11:51:27;;;;;;;0.77;0.30;;;16.40;67.30;;;;;;5110968;27;20449;-82
2023/10/28 11:53:54;;;;;;;0.40;0.20;;;16.20;59.40;;;;;;5105167;27;20795;-82
2023/10/28 11:56:21;;;;;;;1.43;0.40;;;16.20;60.70;;;;;;5111480;27;20544;-82
2023/10/28 11:58:50;;;;;;;2.03;0.33;;;16.20;60.90;;;;;;5103412;27;20526;-83
2023/10/28 12:01:17;;;;;;;0.50;0.30;;;16.00;57.70;;;;;;5117997;27;20457;-83
2023/10/28 12:03:45;;;;;;;0.70;0.30;;;15.90;59.10;;;;;;5109687;27;20538;-83
2023/10/28 12:06:12;;;;;;;0.50;0.30;;;16.00;61.60;;;;;;5120577;27;20464;-83
2023/10/28 12:08:41;;;;;;;0.50;0.37;;;15.80;58.40;;;;;;5127691;27;20444;-83
2023/10/28 12:11:08;;;;;;;0.40;0.30;;;15.80;60.60;;;;;;5121240;27;20471;-83
2023/10/28 12:13:36;;;;;;;0.50;0.30;;;15.80;60.90;;;;;;5110687;27;20483;-83
2023/10/28 12:16:05;;;;;;;1.93;0.37;;;15.70;61.60;;;;;;5110324;27;20475;-83
2023/10/28 12:18:32;;;;;;;0.70;0.30;;;15.80;61.30;;;;;;5127241;27;20845;-83
2023/10/28 12:21:00;;;;;;;0.77;0.30;;;15.80;61.20;;;;;;5121718;27;20466;-83
2023/10/28 12:23:26;;;;;;;1.10;0.30;;;15.70;59.20;;;;;;5109262;27;20465;-83
2023/10/28 12:25:55;;;;;;;0.90;0.40;;;15.70;59.80;;;;;;5112965;27;20814;-83
2023/10/28 12:28:23;;;;;;;0.60;0.30;;;15.80;61.30;;;;;;5125480;27;20969;-84
2023/10/28 12:30:50;;;;;;;1.17;0.30;;;16.00;60.40;;;;;;5115551;27;20500;-84
2023/10/28 12:33:17;;;;;;;1.00;0.70;;;16.00;60.00;;;;;;5112733;27;20472;-84
2023/10/28 12:35:44;;;;;;;0.50;0.30;;;16.00;59.60;;;;;;5110348;27;20960;-84
2023/10/28 12:38:11;;;;;;;0.67;0.30;;;15.90;61.30;;;;;;5109181;27;20534;-84
2023/10/28 12:40:39;;;;;;;1.10;0.43;;;15.90;61.70;;;;;;5106443;27;20473;-84
2023/10/28 12:43:08;;;;;;;3.20;0.40;;;16.00;61.60;;;;;;5109211;27;20466;-84
2023/10/28 12:45:35;;;;;;;1.03;0.40;;;16.00;59.40;;;;;;5105796;27;20470;-84
2023/10/28 12:48:02;;;;;;;0.40;0.30;;;15.90;59.10;;;;;;5105880;27;20471;-84
2023/10/28 12:50:30;;;;;;;0.47;0.30;;;15.90;59.40;;;;;;5115523;27;20448;-82
2023/10/28 12:52:57;;;;;;;0.80;0.40;;;15.90;58.70;;;;;;5108648;27;20457;-83
2023/10/28 12:55:24;;;;;;;0.53;0.37;;;16.00;60.80;;;;;;5112123;27;20687;-83
2023/10/28 12:57:51;;;;;;;0.50;0.30;;;15.90;59.10;;;;;;5112900;27;20592;-83